sensor_id;sensor_type;location;lat;lon;timestamp;pressure;altitude;pressure_sealevel;temperature;humidity
65718;BME280;52445;52.466;-1.016;2022-11-12T00:00:51;101299.00;;;12.90;74.74
65718;BME280;52445;52.466;-1.016;2022-11-12T00:03:18;101299.00;;;12.90;73.80
65718;BME280;52445;52.466;-1.016;2022-11-12T00:05:45;101294.66;;;12.85;75.13
65718;BME280;52445;52.466;-1.016;2022-11-12T00:08:12;101289.44;;;12.85;74.22
65718;BME280;52445;52.466;-1.016;2022-11-12T00:10:39;101292.00;;;12.82;75.22
65718;BME280;52445;52.466;-1.016;2022-11-12T00:13:05;101286.78;;;12.79;74.66
65718;BME280;52445;52.466;-1.016;2022-11-12T00:15:32;101291.09;;;12.79;74.27
65718;BME280;52445;52.466;-1.016;2022-11-12T00:17:59;101297.19;;;12.79;74.63
65718;BME280;52445;52.466;-1.016;2022-11-12T00:20:26;101298.88;;;12.77;74.65
65718;BME280;52445;52.466;-1.016;2022-11-12T00:22:52;101303.25;;;12.77;74.43
65718;BME280;52445;52.466;-1.016;2022-11-12T00:25:19;101295.44;;;12.78;74.37
65718;BME280;52445;52.466;-1.016;2022-11-12T00:27:46;101299.75;;;12.76;73.84
65718;BME280;52445;52.466;-1.016;2022-11-12T00:30:12;101298.88;;;12.77;74.54
65718;BME280;52445;52.466;-1.016;2022-11-12T00:32:39;101299.75;;;12.76;74.22
65718;BME280;52445;52.466;-1.016;2022-11-12T00:35:06;101302.34;;;12.76;74.95
65718;BME280;52445;52.466;-1.016;2022-11-12T00:37:39;101290.25;;;12.78;74.62
65718;BME280;52445;52.466;-1.016;2022-11-12T00:40:06;101293.72;;;12.80;74.28
65718;BME280;52445;52.466;-1.016;2022-11-12T00:42:33;101296.34;;;12.82;73.74
65718;BME280;52445;52.466;-1.016;2022-11-12T00:44:59;101295.47;;;12.84;74.15
65718;BME280;52445;52.466;-1.016;2022-11-12T00:47:26;101286.84;;;12.85;74.34
65718;BME280;52445;52.466;-1.016;2022-11-12T00:49:53;101295.50;;;12.88;73.38
65718;BME280;52445;52.466;-1.016;2022-11-12T00:52:19;101301.56;;;12.85;73.53
65718;BME280;52445;52.466;-1.016;2022-11-12T00:54:48;101291.97;;;12.79;73.36
65718;BME280;52445;52.466;-1.016;2022-11-12T00:57:15;101300.66;;;12.78;74.27
65718;BME280;52445;52.466;-1.016;2022-11-12T00:59:42;101304.97;;;12.78;73.53
65718;BME280;52445;52.466;-1.016;2022-11-12T01:02:09;101298.84;;;12.71;74.39
65718;BME280;52445;52.466;-1.016;2022-11-12T01:04:35;101300.59;;;12.72;73.31
65718;BME280;52445;52.466;-1.016;2022-11-12T01:07:02;101309.25;;;12.71;73.71
65718;BME280;52445;52.466;-1.016;2022-11-12T01:09:28;101299.66;;;12.64;73.58
65718;BME280;52445;52.466;-1.016;2022-11-12T01:11:55;101298.75;;;12.62;72.75
65718;BME280;52445;52.466;-1.016;2022-11-12T01:14:22;101305.59;;;12.49;72.46
65718;BME280;52445;52.466;-1.016;2022-11-12T01:16:48;101308.19;;;12.50;71.68
65718;BME280;52445;52.466;-1.016;2022-11-12T01:19:15;101303.03;;;12.53;71.96
65718;BME280;52445;52.466;-1.016;2022-11-12T01:21:43;101305.56;;;12.47;72.65
65718;BME280;52445;52.466;-1.016;2022-11-12T01:24:12;101293.44;;;12.49;71.36
65718;BME280;52445;52.466;-1.016;2022-11-12T01:26:40;101299.56;;;12.51;71.69
65718;BME280;52445;52.466;-1.016;2022-11-12T01:29:08;101297.81;;;12.52;72.32
65718;BME280;52445;52.466;-1.016;2022-11-12T01:31:37;101300.41;;;12.53;72.11
65718;BME280;52445;52.466;-1.016;2022-11-12T01:34:07;101297.84;;;12.55;71.17
65718;BME280;52445;52.466;-1.016;2022-11-12T01:36:36;101291.66;;;12.39;71.85
65718;BME280;52445;52.466;-1.016;2022-11-12T01:39:06;101291.75;;;12.51;71.77
65718;BME280;52445;52.466;-1.016;2022-11-12T01:41:37;101290.03;;;12.53;71.86
65718;BME280;52445;52.466;-1.016;2022-11-12T01:44:23;101289.97;;;12.47;72.01
65718;BME280;52445;52.466;-1.016;2022-11-12T01:47:14;101294.31;;;12.46;71.70
65718;BME280;52445;52.466;-1.016;2022-11-12T01:49:57;101296.91;;;12.48;72.16
65718;BME280;52445;52.466;-1.016;2022-11-12T01:52:36;101290.88;;;12.52;72.11
65718;BME280;52445;52.466;-1.016;2022-11-12T01:55:09;101301.25;;;12.51;71.87
65718;BME280;52445;52.466;-1.016;2022-11-12T01:57:40;101303.81;;;12.46;71.79
65718;BME280;52445;52.466;-1.016;2022-11-12T02:00:10;101300.38;;;12.47;72.23
65718;BME280;52445;52.466;-1.016;2022-11-12T02:02:38;101285.63;;;12.43;71.43
65718;BME280;52445;52.466;-1.016;2022-11-12T02:05:08;101288.22;;;12.46;72.29
65718;BME280;52445;52.466;-1.016;2022-11-12T02:07:38;101290.75;;;12.38;71.96
65718;BME280;52445;52.466;-1.016;2022-11-12T02:10:07;101273.47;;;12.42;71.59
65718;BME280;52445;52.466;-1.016;2022-11-12T02:12:35;101268.28;;;12.43;71.59
65718;BME280;52445;52.466;-1.016;2022-11-12T02:15:22;101265.66;;;12.42;72.09
65718;BME280;52445;52.466;-1.016;2022-11-12T02:17:48;101262.22;;;12.43;71.95
65718;BME280;52445;52.466;-1.016;2022-11-12T02:20:15;101266.56;;;12.42;71.80
65718;BME280;52445;52.466;-1.016;2022-11-12T02:22:42;101258.75;;;12.41;71.67
65718;BME280;52445;52.466;-1.016;2022-11-12T02:25:12;101261.34;;;12.41;71.85
65718;BME280;52445;52.466;-1.016;2022-11-12T02:27:39;101259.63;;;12.41;71.05
65718;BME280;52445;52.466;-1.016;2022-11-12T02:30:06;101257.00;;;12.40;71.54
65718;BME280;52445;52.466;-1.016;2022-11-12T02:32:33;101255.28;;;12.39;72.01
65718;BME280;52445;52.466;-1.016;2022-11-12T02:34:59;101250.06;;;12.39;70.91
65718;BME280;52445;52.466;-1.016;2022-11-12T02:37:26;101248.28;;;12.34;72.31
65718;BME280;52445;52.466;-1.016;2022-11-12T02:39:53;101253.47;;;12.34;71.23
65718;BME280;52445;52.466;-1.016;2022-11-12T02:42:19;101256.06;;;12.34;71.26
65718;BME280;52445;52.466;-1.016;2022-11-12T02:44:46;101248.28;;;12.34;71.03
65718;BME280;52445;52.466;-1.016;2022-11-12T02:47:13;101248.28;;;12.31;72.11
65718;BME280;52445;52.466;-1.016;2022-11-12T02:49:40;101248.25;;;12.28;71.40
65718;BME280;52445;52.466;-1.016;2022-11-12T02:52:06;101256.00;;;12.25;71.86
65718;BME280;52445;52.466;-1.016;2022-11-12T02:54:33;101246.44;;;12.21;71.11
65718;BME280;52445;52.466;-1.016;2022-11-12T02:56:59;101242.91;;;12.13;71.15
65718;BME280;52445;52.466;-1.016;2022-11-12T02:59:26;101245.34;;;12.03;70.96
65718;BME280;52445;52.466;-1.016;2022-11-12T03:01:53;101249.59;;;11.95;72.58
65718;BME280;52445;52.466;-1.016;2022-11-12T03:04:19;101241.72;;;11.87;72.18
65718;BME280;52445;52.466;-1.016;2022-11-12T03:06:46;101245.09;;;11.78;71.48
65718;BME280;52445;52.466;-1.016;2022-11-12T03:09:13;101239.78;;;11.67;72.02
65718;BME280;52445;52.466;-1.016;2022-11-12T03:11:39;101246.59;;;11.57;72.47
65718;BME280;52445;52.466;-1.016;2022-11-12T03:14:06;101235.19;;;11.46;72.19
65718;BME280;52445;52.466;-1.016;2022-11-12T03:16:32;101233.31;;;11.36;72.52
65718;BME280;52445;52.466;-1.016;2022-11-12T03:18:59;101229.72;;;11.24;71.67
65718;BME280;52445;52.466;-1.016;2022-11-12T03:21:25;101222.66;;;11.14;72.29
65718;BME280;52445;52.466;-1.016;2022-11-12T03:23:52;101219.97;;;11.06;72.54
65718;BME280;52445;52.466;-1.016;2022-11-12T03:26:19;101217.25;;;10.98;72.45
65718;BME280;52445;52.466;-1.016;2022-11-12T03:28:46;101206.81;;;10.92;72.51
65718;BME280;52445;52.466;-1.016;2022-11-12T03:31:12;101210.22;;;10.88;72.11
65718;BME280;52445;52.466;-1.016;2022-11-12T03:33:39;101217.91;;;10.83;72.08
65718;BME280;52445;52.466;-1.016;2022-11-12T03:36:06;101212.66;;;10.80;72.15
65718;BME280;52445;52.466;-1.016;2022-11-12T03:38:32;101216.94;;;10.76;72.39
65718;BME280;52445;52.466;-1.016;2022-11-12T03:40:59;101213.38;;;10.68;73.11
65718;BME280;52445;52.466;-1.016;2022-11-12T03:43:26;101216.72;;;10.61;72.51
65718;BME280;52445;52.466;-1.016;2022-11-12T03:45:53;101218.31;;;10.52;72.13
65718;BME280;52445;52.466;-1.016;2022-11-12T03:48:19;101220.75;;;10.45;73.56
65718;BME280;52445;52.466;-1.016;2022-11-12T03:50:46;101224.94;;;10.38;73.41
65718;BME280;52445;52.466;-1.016;2022-11-12T03:53:13;101216.38;;;10.42;73.78
65718;BME280;52445;52.466;-1.016;2022-11-12T03:55:39;101221.66;;;10.45;74.08
65718;BME280;52445;52.466;-1.016;2022-11-12T03:58:06;101224.25;;;10.47;74.29
65718;BME280;52445;52.466;-1.016;2022-11-12T04:00:33;101227.72;;;10.47;74.49
65718;BME280;52445;52.466;-1.016;2022-11-12T04:02:59;101230.25;;;10.46;75.25
65718;BME280;52445;52.466;-1.016;2022-11-12T04:05:26;101221.69;;;10.48;75.18
65718;BME280;52445;52.466;-1.016;2022-11-12T04:10:50;101218.41;;;10.59;75.78
65718;BME280;52445;52.466;-1.016;2022-11-12T04:13:17;101213.22;;;10.59;76.00
65718;BME280;52445;52.466;-1.016;2022-11-12T04:16:07;101207.31;;;10.67;76.72
65718;BME280;52445;52.466;-1.016;2022-11-12T04:18:55;101205.59;;;10.68;76.37
65718;BME280;52445;52.466;-1.016;2022-11-12T04:21:48;101204.78;;;10.71;76.69
65718;BME280;52445;52.466;-1.016;2022-11-12T04:26:53;101192.81;;;10.80;76.28
65718;BME280;52445;52.466;-1.016;2022-11-12T04:29:22;101184.25;;;10.85;76.49
65718;BME280;52445;52.466;-1.016;2022-11-12T04:32:09;101178.19;;;10.84;76.32
65718;BME280;52445;52.466;-1.016;2022-11-12T04:34:35;101182.44;;;10.79;76.40
65718;BME280;52445;52.466;-1.016;2022-11-12T04:37:03;101182.47;;;10.80;76.43
65718;BME280;52445;52.466;-1.016;2022-11-12T04:39:30;101187.47;;;10.71;77.22
65718;BME280;52445;52.466;-1.016;2022-11-12T04:41:58;101179.75;;;10.73;76.28
65718;BME280;52445;52.466;-1.016;2022-11-12T04:44:44;101181.38;;;10.66;76.49
65718;BME280;52445;52.466;-1.016;2022-11-12T04:47:37;101182.22;;;10.65;76.32
65718;BME280;52445;52.466;-1.016;2022-11-12T04:50:07;101183.91;;;10.63;76.42
65718;BME280;52445;52.466;-1.016;2022-11-12T04:52:37;101178.66;;;10.57;76.23
65718;BME280;52445;52.466;-1.016;2022-11-12T04:55:05;101176.88;;;10.56;76.46
65718;BME280;52445;52.466;-1.016;2022-11-12T04:57:31;101173.47;;;10.57;75.91
65718;BME280;52445;52.466;-1.016;2022-11-12T04:59:58;101170.81;;;10.52;77.11
65718;BME280;52445;52.466;-1.016;2022-11-12T05:02:25;101165.63;;;10.52;76.86
65718;BME280;52445;52.466;-1.016;2022-11-12T05:04:51;101177.69;;;10.51;76.70
65718;BME280;52445;52.466;-1.016;2022-11-12T05:07:18;101178.56;;;10.52;76.48
65718;BME280;52445;52.466;-1.016;2022-11-12T05:09:45;101172.50;;;10.51;75.91
65718;BME280;52445;52.466;-1.016;2022-11-12T05:12:11;101169.97;;;10.54;76.35
65718;BME280;52445;52.466;-1.016;2022-11-12T05:14:38;101168.25;;;10.53;77.32
65718;BME280;52445;52.466;-1.016;2022-11-12T05:17:05;101172.59;;;10.56;77.07
65718;BME280;52445;52.466;-1.016;2022-11-12T05:19:32;101177.81;;;10.59;76.32
65718;BME280;52445;52.466;-1.016;2022-11-12T05:22:00;101185.56;;;10.58;77.34
65718;BME280;52445;52.466;-1.016;2022-11-12T05:24:54;101189.06;;;10.60;77.32
65718;BME280;52445;52.466;-1.016;2022-11-12T05:27:20;101189.91;;;10.59;76.95
65718;BME280;52445;52.466;-1.016;2022-11-12T05:29:47;101188.25;;;10.62;76.88
65718;BME280;52445;52.466;-1.016;2022-11-12T05:32:15;101190.03;;;10.66;77.13
65718;BME280;52445;52.466;-1.016;2022-11-12T05:34:42;101193.47;;;10.67;77.68
65718;BME280;52445;52.466;-1.016;2022-11-12T05:37:10;101190.00;;;10.65;78.12
65718;BME280;52445;52.466;-1.016;2022-11-12T05:39:37;101190.94;;;10.70;77.79
65718;BME280;52445;52.466;-1.016;2022-11-12T05:42:04;101181.44;;;10.71;77.24
65718;BME280;52445;52.466;-1.016;2022-11-12T05:44:40;101185.69;;;10.64;78.32
65718;BME280;52445;52.466;-1.016;2022-11-12T05:47:07;101183.13;;;10.65;78.55
65718;BME280;52445;52.466;-1.016;2022-11-12T05:49:33;101184.00;;;10.69;76.96
65718;BME280;52445;52.466;-1.016;2022-11-12T05:52:00;101191.84;;;10.72;77.75
65718;BME280;52445;52.466;-1.016;2022-11-12T05:54:26;101191.88;;;10.74;77.69
65718;BME280;52445;52.466;-1.016;2022-11-12T05:56:53;101197.91;;;10.74;77.73
65718;BME280;52445;52.466;-1.016;2022-11-12T05:59:20;101191.00;;;10.73;76.91
65718;BME280;52445;52.466;-1.016;2022-11-12T06:01:47;101194.50;;;10.75;77.58
65718;BME280;52445;52.466;-1.016;2022-11-12T06:04:15;101194.47;;;10.77;77.16
65718;BME280;52445;52.466;-1.016;2022-11-12T06:06:42;101191.03;;;10.76;77.35
65718;BME280;52445;52.466;-1.016;2022-11-12T06:09:10;101185.84;;;10.76;76.64
65718;BME280;52445;52.466;-1.016;2022-11-12T06:11:39;101187.53;;;10.74;77.13
65718;BME280;52445;52.466;-1.016;2022-11-12T06:14:06;101185.75;;;10.70;77.25
65718;BME280;52445;52.466;-1.016;2022-11-12T06:16:32;101190.09;;;10.70;77.42
65718;BME280;52445;52.466;-1.016;2022-11-12T06:18:59;101191.72;;;10.64;77.62
65718;BME280;52445;52.466;-1.016;2022-11-12T06:21:26;101201.16;;;10.61;78.01
65718;BME280;52445;52.466;-1.016;2022-11-12T06:23:57;101189.88;;;10.57;77.80
65718;BME280;52445;52.466;-1.016;2022-11-12T06:26:25;101185.53;;;10.56;78.32
65718;BME280;52445;52.466;-1.016;2022-11-12T06:28:53;101195.88;;;10.54;77.59
65718;BME280;52445;52.466;-1.016;2022-11-12T06:31:20;101192.44;;;10.56;77.64
65718;BME280;52445;52.466;-1.016;2022-11-12T06:33:47;101190.69;;;10.54;78.04
65718;BME280;52445;52.466;-1.016;2022-11-12T06:36:16;101197.63;;;10.56;78.08
65718;BME280;52445;52.466;-1.016;2022-11-12T06:38:43;101195.88;;;10.54;77.24
65718;BME280;52445;52.466;-1.016;2022-11-12T06:41:11;101197.59;;;10.52;77.81
65718;BME280;52445;52.466;-1.016;2022-11-12T06:43:39;101196.72;;;10.52;78.05
65718;BME280;52445;52.466;-1.016;2022-11-12T06:46:10;101201.84;;;10.49;77.85
65718;BME280;52445;52.466;-1.016;2022-11-12T06:48:37;101208.84;;;10.54;77.95
65718;BME280;52445;52.466;-1.016;2022-11-12T06:51:06;101207.91;;;10.49;78.25
65718;BME280;52445;52.466;-1.016;2022-11-12T06:53:32;101210.59;;;10.57;77.84
65718;BME280;52445;52.466;-1.016;2022-11-12T06:56:02;101212.38;;;10.60;78.92
65718;BME280;52445;52.466;-1.016;2022-11-12T06:58:29;101209.81;;;10.63;77.71
65718;BME280;52445;52.466;-1.016;2022-11-12T07:00:56;101206.41;;;10.64;78.05
65718;BME280;52445;52.466;-1.016;2022-11-12T07:03:22;101212.47;;;10.66;78.47
65718;BME280;52445;52.466;-1.016;2022-11-12T07:05:49;101208.19;;;10.68;77.99
65718;BME280;52445;52.466;-1.016;2022-11-12T07:08:16;101220.34;;;10.72;77.97
65718;BME280;52445;52.466;-1.016;2022-11-12T07:10:42;101209.16;;;10.75;78.91
65718;BME280;52445;52.466;-1.016;2022-11-12T07:13:09;101209.19;;;10.76;77.79
65718;BME280;52445;52.466;-1.016;2022-11-12T07:15:35;101208.41;;;10.82;77.80
65718;BME280;52445;52.466;-1.016;2022-11-12T07:18:02;101208.44;;;10.87;78.45
65718;BME280;52445;52.466;-1.016;2022-11-12T07:20:29;101200.72;;;10.90;77.81
65718;BME280;52445;52.466;-1.016;2022-11-12T07:22:59;101199.09;;;10.95;77.52
65718;BME280;52445;52.466;-1.016;2022-11-12T07:25:25;101201.66;;;10.93;78.70
65718;BME280;52445;52.466;-1.016;2022-11-12T07:27:52;101194.78;;;10.97;77.77
65718;BME280;52445;52.466;-1.016;2022-11-12T07:30:20;101201.69;;;10.98;78.60
65718;BME280;52445;52.466;-1.016;2022-11-12T07:32:47;101200.88;;;10.99;78.53
65718;BME280;52445;52.466;-1.016;2022-11-12T07:35:17;101200.78;;;10.93;78.35
65718;BME280;52445;52.466;-1.016;2022-11-12T07:37:44;101205.16;;;10.97;77.87
65718;BME280;52445;52.466;-1.016;2022-11-12T07:40:11;101206.09;;;11.01;78.71
65718;BME280;52445;52.466;-1.016;2022-11-12T07:42:38;101203.47;;;11.02;78.51
65718;BME280;52445;52.466;-1.016;2022-11-12T07:45:04;101198.28;;;10.99;78.98
65718;BME280;52445;52.466;-1.016;2022-11-12T07:47:31;101210.47;;;11.07;78.33
65718;BME280;52445;52.466;-1.016;2022-11-12T07:49:58;101212.22;;;11.08;77.85
65718;BME280;52445;52.466;-1.016;2022-11-12T07:52:25;101205.28;;;11.07;78.67
65718;BME280;52445;52.466;-1.016;2022-11-12T07:54:52;101207.91;;;11.10;77.68
65718;BME280;52445;52.466;-1.016;2022-11-12T07:57:19;101211.38;;;11.10;78.54
65718;BME280;52445;52.466;-1.016;2022-11-12T07:59:45;101215.72;;;11.13;78.75
65718;BME280;52445;52.466;-1.016;2022-11-12T08:02:12;101204.50;;;11.14;78.92
65718;BME280;52445;52.466;-1.016;2022-11-12T08:04:39;101215.72;;;11.13;78.07
65718;BME280;52445;52.466;-1.016;2022-11-12T08:07:05;101222.72;;;11.18;79.16
65718;BME280;52445;52.466;-1.016;2022-11-12T08:09:32;101227.09;;;11.23;79.15
65718;BME280;52445;52.466;-1.016;2022-11-12T08:11:59;101226.25;;;11.25;78.23
65718;BME280;52445;52.466;-1.016;2022-11-12T08:14:25;101226.28;;;11.27;78.65
65718;BME280;52445;52.466;-1.016;2022-11-12T08:16:52;101235.00;;;11.30;78.79
65718;BME280;52445;52.466;-1.016;2022-11-12T08:19:19;101241.09;;;11.36;77.44
65718;BME280;52445;52.466;-1.016;2022-11-12T08:21:46;101243.66;;;11.32;78.54
65718;BME280;52445;52.466;-1.016;2022-11-12T08:24:12;101248.03;;;11.37;78.88
65718;BME280;52445;52.466;-1.016;2022-11-12T08:26:39;101247.22;;;11.41;78.69
65718;BME280;52445;52.466;-1.016;2022-11-12T08:29:05;101248.16;;;11.44;78.49
65718;BME280;52445;52.466;-1.016;2022-11-12T08:31:34;101255.97;;;11.48;78.03
65718;BME280;52445;52.466;-1.016;2022-11-12T08:34:01;101253.41;;;11.51;78.26
65718;BME280;52445;52.466;-1.016;2022-11-12T08:36:38;101245.63;;;11.49;77.69
65718;BME280;52445;52.466;-1.016;2022-11-12T08:39:06;101244.78;;;11.52;77.63
65718;BME280;52445;52.466;-1.016;2022-11-12T08:41:33;101245.69;;;11.55;77.80
65718;BME280;52445;52.466;-1.016;2022-11-12T08:44:00;101245.72;;;11.59;78.50
65718;BME280;52445;52.466;-1.016;2022-11-12T08:46:33;101238.84;;;11.64;78.78
65718;BME280;52445;52.466;-1.016;2022-11-12T08:49:00;101235.44;;;11.68;78.10
65718;BME280;52445;52.466;-1.016;2022-11-12T08:51:26;101235.44;;;11.65;78.66
65718;BME280;52445;52.466;-1.016;2022-11-12T08:53:53;101237.22;;;11.69;77.58
65718;BME280;52445;52.466;-1.016;2022-11-12T08:56:20;101242.41;;;11.72;77.43
65718;BME280;52445;52.466;-1.016;2022-11-12T08:58:46;101247.59;;;11.69;79.09
65718;BME280;52445;52.466;-1.016;2022-11-12T09:01:13;101245.03;;;11.75;77.54
65718;BME280;52445;52.466;-1.016;2022-11-12T09:03:40;101240.69;;;11.71;77.29
65718;BME280;52445;52.466;-1.016;2022-11-12T09:06:06;101239.00;;;11.76;78.88
65718;BME280;52445;52.466;-1.016;2022-11-12T09:08:34;101242.44;;;11.75;78.36
65718;BME280;52445;52.466;-1.016;2022-11-12T09:11:01;101239.91;;;11.80;77.81
65718;BME280;52445;52.466;-1.016;2022-11-12T09:13:28;101246.00;;;11.80;78.10
65718;BME280;52445;52.466;-1.016;2022-11-12T09:15:59;101239.13;;;11.86;77.27
65718;BME280;52445;52.466;-1.016;2022-11-12T09:18:27;101241.75;;;11.89;78.23
65718;BME280;52445;52.466;-1.016;2022-11-12T09:20:58;101240.00;;;11.89;77.99
65718;BME280;52445;52.466;-1.016;2022-11-12T09:23:25;101236.59;;;11.95;78.35
65718;BME280;52445;52.466;-1.016;2022-11-12T09:25:53;101239.28;;;12.01;78.45
65718;BME280;52445;52.466;-1.016;2022-11-12T09:28:21;101229.84;;;12.08;77.21
65718;BME280;52445;52.466;-1.016;2022-11-12T09:30:49;101235.91;;;12.07;77.90
65718;BME280;52445;52.466;-1.016;2022-11-12T09:33:20;101243.75;;;12.10;77.52
65718;BME280;52445;52.466;-1.016;2022-11-12T09:35:47;101242.00;;;12.12;77.12
65718;BME280;52445;52.466;-1.016;2022-11-12T09:38:15;101237.75;;;12.19;77.94
65718;BME280;52445;52.466;-1.016;2022-11-12T09:40:59;101242.94;;;12.16;77.12
65718;BME280;52445;52.466;-1.016;2022-11-12T09:43:32;101237.78;;;12.22;76.97
65718;BME280;52445;52.466;-1.016;2022-11-12T09:46:13;101242.13;;;12.23;77.04
65718;BME280;52445;52.466;-1.016;2022-11-12T09:48:59;101247.31;;;12.25;76.82
65718;BME280;52445;52.466;-1.016;2022-11-12T09:51:31;101249.94;;;12.26;78.17
65718;BME280;52445;52.466;-1.016;2022-11-12T09:54:03;101243.06;;;12.34;76.71
65718;BME280;52445;52.466;-1.016;2022-11-12T09:56:32;101239.75;;;12.48;76.81
65718;BME280;52445;52.466;-1.016;2022-11-12T09:58:59;101245.03;;;12.60;77.32
65718;BME280;52445;52.466;-1.016;2022-11-12T10:01:42;101242.50;;;12.65;77.07
65718;BME280;52445;52.466;-1.016;2022-11-12T10:07:47;101241.91;;;13.05;76.59
65718;BME280;52445;52.466;-1.016;2022-11-12T10:13:43;101255.97;;;13.42;76.48
65718;BME280;52445;52.466;-1.016;2022-11-12T10:24:50;101259.75;;;14.97;73.72
65718;BME280;52445;52.466;-1.016;2022-11-12T10:27:19;101264.91;;;15.22;72.91
65718;BME280;52445;52.466;-1.016;2022-11-12T10:30:04;101268.34;;;15.33;72.81
65718;BME280;52445;52.466;-1.016;2022-11-12T10:32:33;101257.91;;;15.39;72.24
65718;BME280;52445;52.466;-1.016;2022-11-12T10:35:02;101260.47;;;15.50;72.13
65718;BME280;52445;52.466;-1.016;2022-11-12T10:40:27;101245.63;;;15.60;71.87
65718;BME280;52445;52.466;-1.016;2022-11-12T10:42:59;101239.50;;;15.72;71.64
65718;BME280;52445;52.466;-1.016;2022-11-12T10:45:26;101236.81;;;15.80;70.95
65718;BME280;52445;52.466;-1.016;2022-11-12T10:47:53;101238.59;;;15.78;70.90
65718;BME280;52445;52.466;-1.016;2022-11-12T10:53:00;101221.28;;;15.58;70.86
65718;BME280;52445;52.466;-1.016;2022-11-12T10:55:37;101217.03;;;15.34;70.35
65718;BME280;52445;52.466;-1.016;2022-11-12T10:58:20;101212.81;;;14.98;70.35
65718;BME280;52445;52.466;-1.016;2022-11-12T11:03:35;101205.00;;;14.70;71.29
65718;BME280;52445;52.466;-1.016;2022-11-12T11:06:19;101211.09;;;14.55;71.57
65718;BME280;52445;52.466;-1.016;2022-11-12T11:08:49;101208.47;;;14.58;71.78
65718;BME280;52445;52.466;-1.016;2022-11-12T11:11:26;101204.13;;;14.48;72.12
65718;BME280;52445;52.466;-1.016;2022-11-12T11:13:55;101200.66;;;14.61;72.42
65718;BME280;52445;52.466;-1.016;2022-11-12T11:16:25;101194.56;;;14.78;72.96
65718;BME280;52445;52.466;-1.016;2022-11-12T11:33:03;101182.25;;;15.28;71.82
65718;BME280;52445;52.466;-1.016;2022-11-12T11:43:54;101166.63;;;15.18;71.53
65718;BME280;52445;52.466;-1.016;2022-11-12T11:49:40;101162.31;;;15.10;72.06
65718;BME280;52445;52.466;-1.016;2022-11-12T11:55:52;101144.91;;;15.12;71.84
65718;BME280;52445;52.466;-1.016;2022-11-12T11:58:32;101144.97;;;15.03;72.49
65718;BME280;52445;52.466;-1.016;2022-11-12T12:04:05;101148.38;;;15.14;71.40
65718;BME280;52445;52.466;-1.016;2022-11-12T12:06:45;101141.41;;;15.16;71.58
65718;BME280;52445;52.466;-1.016;2022-11-12T12:09:30;101145.81;;;15.07;72.29
65718;BME280;52445;52.466;-1.016;2022-11-12T12:23:39;101133.59;;;15.15;72.23
65718;BME280;52445;52.466;-1.016;2022-11-12T12:26:13;101126.66;;;15.11;72.84
65718;BME280;52445;52.466;-1.016;2022-11-12T12:28:45;101121.44;;;15.12;72.46
65718;BME280;52445;52.466;-1.016;2022-11-12T12:31:17;101122.31;;;15.08;72.90
65718;BME280;52445;52.466;-1.016;2022-11-12T12:33:50;101117.94;;;15.18;72.77
65718;BME280;52445;52.466;-1.016;2022-11-12T12:36:24;101111.88;;;15.13;72.96
65718;BME280;52445;52.466;-1.016;2022-11-12T12:39:14;101111.88;;;15.11;72.31
65718;BME280;52445;52.466;-1.016;2022-11-12T12:44:23;101105.75;;;15.17;72.72
65718;BME280;52445;52.466;-1.016;2022-11-12T12:47:13;101104.00;;;15.14;72.61
65718;BME280;52445;52.466;-1.016;2022-11-12T12:49:40;101110.03;;;15.26;71.91
65718;BME280;52445;52.466;-1.016;2022-11-12T12:52:11;101108.31;;;15.25;72.74
65718;BME280;52445;52.466;-1.016;2022-11-12T12:57:28;101108.22;;;15.44;72.33
65718;BME280;52445;52.466;-1.016;2022-11-12T13:03:00;101102.19;;;15.35;72.57
65718;BME280;52445;52.466;-1.016;2022-11-12T13:05:30;101099.56;;;15.35;72.44
65718;BME280;52445;52.466;-1.016;2022-11-12T13:08:03;101097.81;;;15.37;72.90
65718;BME280;52445;52.466;-1.016;2022-11-12T13:15:58;101097.81;;;15.37;72.87
65718;BME280;52445;52.466;-1.016;2022-11-12T13:21:19;101091.72;;;15.38;72.67
65718;BME280;52445;52.466;-1.016;2022-11-12T13:23:49;101092.56;;;15.40;72.45
65718;BME280;52445;52.466;-1.016;2022-11-12T13:26:50;101092.56;;;15.40;72.28
65718;BME280;52445;52.466;-1.016;2022-11-12T13:29:38;101093.44;;;15.44;72.36
65718;BME280;52445;52.466;-1.016;2022-11-12T13:32:27;101096.94;;;15.40;72.36
65718;BME280;52445;52.466;-1.016;2022-11-12T13:40:45;101082.91;;;15.57;72.46
65718;BME280;52445;52.466;-1.016;2022-11-12T13:48:42;101069.97;;;15.36;73.09
65718;BME280;52445;52.466;-1.016;2022-11-12T13:51:16;101070.84;;;15.40;73.14
65718;BME280;52445;52.466;-1.016;2022-11-12T13:53:44;101069.06;;;15.42;73.49
65718;BME280;52445;52.466;-1.016;2022-11-12T13:56:11;101069.06;;;15.40;73.21
65718;BME280;52445;52.466;-1.016;2022-11-12T13:58:38;101063.91;;;15.34;73.38
65718;BME280;52445;52.466;-1.016;2022-11-12T14:01:05;101057.81;;;15.35;73.36
65718;BME280;52445;52.466;-1.016;2022-11-12T14:03:42;101056.09;;;15.33;73.49
65718;BME280;52445;52.466;-1.016;2022-11-12T14:06:16;101044.81;;;15.26;73.69
65718;BME280;52445;52.466;-1.016;2022-11-12T14:20:07;101036.97;;;15.26;73.70
65718;BME280;52445;52.466;-1.016;2022-11-12T14:22:41;101043.94;;;15.27;74.04
65718;BME280;52445;52.466;-1.016;2022-11-12T14:25:15;101048.31;;;15.22;74.11
65718;BME280;52445;52.466;-1.016;2022-11-12T14:27:43;101050.06;;;15.24;74.31
65718;BME280;52445;52.466;-1.016;2022-11-12T14:32:51;101049.19;;;15.18;73.94
65718;BME280;52445;52.466;-1.016;2022-11-12T14:35:29;101043.16;;;15.14;74.51
65718;BME280;52445;52.466;-1.016;2022-11-12T14:40:37;101038.84;;;15.08;74.50
65718;BME280;52445;52.466;-1.016;2022-11-12T14:45:57;101032.75;;;15.06;74.58
65718;BME280;52445;52.466;-1.016;2022-11-12T14:48:24;101026.66;;;15.07;74.20
65718;BME280;52445;52.466;-1.016;2022-11-12T14:50:58;101031.91;;;15.04;74.80
65718;BME280;52445;52.466;-1.016;2022-11-12T14:53:30;101031.91;;;14.98;74.51